Time;durP1;ratioP1;P1;durP2;ratioP2;P2;SDS_P1;SDS_P2;PMS_P1;PMS_P2;Temp;Humidity;BMP_temperature;BMP_pressure;BME280_temperature;BME280_humidity;BME280_pressure;Samples;Min_cycle;Max_cycle;Signal;HPM_P1;HPM_P2
2021/07/23 00:02:02;;;;;;;;;;;;;;;;;;4991236;28;19926;-90
2021/07/23 00:04:32;;;;;;;;;;;;;;;;;;5008571;28;19926;-90
2021/07/23 00:07:00;;;;;;;;;;;;;;;;;;4982295;28;20443;-88
2021/07/23 00:09:28;;;;;;;;;;;;;;;;;;4981203;28;19925;-90
2021/07/23 00:11:56;;;;;;;;;;;;;;;;;;5012618;28;19926;-90
2021/07/23 00:14:25;;;;;;;;;;;;;;;;;;4994920;28;20440;-90
2021/07/23 00:16:53;;;;;;;;;;;;;;;;;;4996322;28;19936;-90
2021/07/23 00:19:23;;;;;;;;;;;;;;;;;;4977628;28;19972;-90
2021/07/23 00:21:51;;;;;;;;;;;;;;;;;;4992063;28;19925;-91
2021/07/23 00:24:19;;;;;;;;;;;;;;;;;;4997859;28;20312;-89
2021/07/23 12:30:32;;;;;;;;;;;;;;;;;;5023189;28;20385;-87
2021/07/23 12:33:11;;;;;;;;;;;;;;;;;;5001241;28;20240;-90
2021/07/23 12:35:40;;;;;;;;;;;;;;;;;;4990385;28;19999;-91
2021/07/23 12:41:57;;;;;;;;;;;;;;;;;;5046369;23;19939;-83
2021/07/23 13:05:03;;;;;;;;;;;;;;;;;;5025930;28;19925;-82
2021/07/23 13:21:06;;;;;;;;;;;;;;;;;;5041359;28;20202;-83
2021/07/23 13:27:51;;;;;;;;;;;;;;;;;;4925608;28;20636;-83
2021/07/23 13:30:52;;;;;;;;;;;;;;;;;;4969865;28;20116;-84
2021/07/23 13:33:26;;;;;;;;;;;;;;;;;;4950966;28;19926;-83
2021/07/23 13:35:59;;;;;;;;;;;;;;;;;;4954444;28;20253;-84
2021/07/23 13:38:30;;;;;;;;;;;;;;;;;;4952551;28;20296;-84
2021/07/23 13:40:59;;;;;;;;;;;;;;;;;;4951741;28;19926;-83
2021/07/23 13:47:03;;;;;;;;;;;;;;;;;;4979132;28;19926;-84
2021/07/23 13:49:31;;;;;;;;;;;;;;;;;;4960439;28;20327;-85
2021/07/23 13:52:06;;;;;;;;;;;;;;;;;;4949810;28;19930;-83
2021/07/23 13:54:34;;;;;;;;;;;;;;;;;;4980835;28;19926;-83
2021/07/23 13:57:03;;;;;;;;;;;;;;;;;;4985092;28;20389;-83
2021/07/23 14:02:47;;;;;;;;;;;;;;;;;;4985861;28;20326;-87
2021/07/23 14:05:41;;;;;;;;;;;;;;;;;;4968146;28;19926;-88
2021/07/23 14:08:10;;;;;;;;;;;;;;;;;;4980079;28;19926;-87
2021/07/23 14:10:38;;;;;;;;;;;;;;;;;;4973625;28;19933;-88
2021/07/23 14:13:07;;;;;;;;;;;;;;;;;;4973471;28;19930;-88
2021/07/23 14:15:35;;;;;;;;;;;;;;;;;;4986040;28;20401;-87
2021/07/23 14:18:03;;;;;;;;;;;;;;;;;;4990079;28;20329;-88
2021/07/23 14:20:35;;;;;;;;;;;;;;;;;;4991734;28;19933;-88
2021/07/23 14:23:05;;;;;;;;;;;;;;;;;;4958288;28;19933;-88
2021/07/23 14:25:35;;;;;;;;;;;;;;;;;;4964107;28;19933;-88
2021/07/23 14:28:03;;;;;;;;;;;;;;;;;;4986786;28;19930;-91
2021/07/23 14:30:31;;;;;;;;;;;;;;;;;;4970736;28;19926;-88
2021/07/23 14:33:01;;;;;;;;;;;;;;;;;;4971101;28;19937;-88
2021/07/23 14:35:29;;;;;;;;;;;;;;;;;;5014384;28;20406;-89
2021/07/23 14:37:57;;;;;;;;;;;;;;;;;;4996098;28;19925;-88
2021/07/23 14:40:26;;;;;;;;;;;;;;;;;;4982728;28;19933;-88
2021/07/23 14:42:55;;;;;;;;;;;;;;;;;;4971904;28;19926;-87
2021/07/23 14:45:23;;;;;;;;;;;;;;;;;;4972139;28;19926;-86
2021/07/23 14:47:51;;;;;;;;;;;;;;;;;;4954107;28;19926;-88
2021/07/23 14:50:20;;;;;;;;;;;;;;;;;;4977967;28;19926;-88
2021/07/23 14:52:48;;;;;;;;;;;;;;;;;;5054538;28;19937;-88
2021/07/23 14:55:16;;;;;;;;;;;;;;;;;;4996949;28;19926;-87
2021/07/23 14:57:44;;;;;;;;;;;;;;;;;;4993774;28;19930;-88
2021/07/23 15:00:17;;;;;;;;;;;;;;;;;;4970610;28;19926;-87
2021/07/23 15:02:45;;;;;;;;;;;;;;;;;;4970063;28;19962;-88
2021/07/23 15:05:14;;;;;;;;;;;;;;;;;;4981891;28;19926;-88
2021/07/23 15:07:48;;;;;;;;;;;;;;;;;;4984021;28;19941;-87
2021/07/23 15:10:16;;;;;;;;;;;;;;;;;;4983025;28;19934;-89
2021/07/23 15:12:45;;;;;;;;;;;;;;;;;;4985758;28;19938;-88
2021/07/23 15:15:15;;;;;;;;;;;;;;;;;;4981496;28;20004;-88
2021/07/23 15:17:48;;;;;;;;;;;;;;;;;;4986712;28;19937;-88
2021/07/23 15:20:18;;;;;;;;;;;;;;;;;;5013553;28;19933;-88
2021/07/23 15:22:46;;;;;;;;;;;;;;;;;;4968912;28;20001;-91
2021/07/23 15:25:16;;;;;;;;;;;;;;;;;;4986725;28;19949;-87
2021/07/23 15:27:44;;;;;;;;;;;;;;;;;;5006851;28;19937;-87
2021/07/23 15:30:13;;;;;;;;;;;;;;;;;;4970640;28;19933;-89
2021/07/23 15:32:43;;;;;;;;;;;;;;;;;;4962319;28;19952;-88
2021/07/23 15:35:12;;;;;;;;;;;;;;;;;;4972032;28;20057;-88
2021/07/23 15:38:00;;;;;;;;;;;;;;;;;;4995304;28;19925;-88
2021/07/23 15:40:30;;;;;;;;;;;;;;;;;;4986834;28;20041;-88
2021/07/23 15:42:59;;;;;;;;;;;;;;;;;;4980779;28;19926;-89
2021/07/23 15:45:27;;;;;;;;;;;;;;;;;;4971454;28;19926;-88
2021/07/23 15:47:58;;;;;;;;;;;;;;;;;;5009245;28;19924;-89
2021/07/23 15:50:26;;;;;;;;;;;;;;;;;;5015041;28;19936;-90
2021/07/23 15:52:55;;;;;;;;;;;;;;;;;;5004062;28;19934;-90
2021/07/23 15:55:23;;;;;;;;;;;;;;;;;;5008525;28;20395;-93
2021/07/23 15:57:54;;;;;;;;;;;;;;;;;;4974509;28;20460;-92
2021/07/23 16:00:22;;;;;;;;;;;;;;;;;;4993283;28;19971;-92
2021/07/23 16:02:54;;;;;;;;;;;;;;;;;;4989602;28;19926;-92
2021/07/23 16:05:33;;;;;;;;;;;;;;;;;;4992315;28;19921;-91
2021/07/23 16:08:02;;;;;;;;;;;;;;;;;;4992809;28;19911;-94
2021/07/23 16:10:39;;;;;;;;;;;;;;;;;;4990134;28;19924;-93
2021/07/23 16:13:08;;;;;;;;;;;;;;;;;;4977743;28;19921;-94
2021/07/23 16:15:36;;;;;;;;;;;;;;;;;;5006655;22;19951;-83
2021/07/23 16:18:05;;;;;;;;;;;;;;;;;;5003638;28;19947;-83
2021/07/23 16:20:35;;;;;;;;;;;;;;;;;;4986527;28;19930;-83
2021/07/23 16:23:03;;;;;;;;;;;;;;;;;;4988076;28;20319;-83
2021/07/23 16:25:31;;;;;;;;;;;;;;;;;;4982545;28;19933;-83
2021/07/23 16:28:00;;;;;;;;;;;;;;;;;;4986130;28;19945;-84
2021/07/23 16:30:28;;;;;;;;;;;;;;;;;;5001276;28;19925;-84
2021/07/23 16:32:56;;;;;;;;;;;;;;;;;;4998240;28;19926;-83
2021/07/23 16:35:24;;;;;;;;;;;;;;;;;;4999014;28;19926;-83
2021/07/23 16:37:54;;;;;;;;;;;;;;;;;;5003096;28;19974;-83
2021/07/23 16:40:22;;;;;;;;;;;;;;;;;;5012489;28;19926;-85
2021/07/23 16:42:51;;;;;;;;;;;;;;;;;;4986336;28;19932;-83
2021/07/23 16:45:19;;;;;;;;;;;;;;;;;;4987989;28;19933;-84
2021/07/23 16:47:47;;;;;;;;;;;;;;;;;;5000860;28;20328;-84
2021/07/23 16:50:15;;;;;;;;;;;;;;;;;;4994609;28;20415;-83
2021/07/23 16:52:44;;;;;;;;;;;;;;;;;;4992689;28;19926;-83
2021/07/23 16:55:14;;;;;;;;;;;;;;;;;;4994701;28;19930;-83
2021/07/23 16:57:42;;;;;;;;;;;;;;;;;;4984219;28;19926;-83
2021/07/23 17:00:11;;;;;;;;;;;;;;;;;;4995342;28;20590;-82
2021/07/23 17:02:40;;;;;;;;;;;;;;;;;;4996880;28;19926;-83
2021/07/23 17:05:09;;;;;;;;;;;;;;;;;;5016825;28;20101;-82
2021/07/23 17:07:38;;;;;;;;;;;;;;;;;;4984863;28;20414;-84
2021/07/23 17:10:09;;;;;;;;;;;;;;;;;;4986051;28;19925;-82
2021/07/23 17:12:39;;;;;;;;;;;;;;;;;;5013030;28;19937;-84
2021/07/23 17:15:07;;;;;;;;;;;;;;;;;;5070507;28;19926;-82
2021/07/23 17:17:36;;;;;;;;;;;;;;;;;;5006406;28;19926;-83
2021/07/23 17:20:04;;;;;;;;;;;;;;;;;;5013438;28;19930;-84
2021/07/23 17:22:33;;;;;;;;;;;;;;;;;;4998191;28;19933;-82
2021/07/23 17:25:01;;;;;;;;;;;;;;;;;;4984642;28;19929;-82
2021/07/23 17:27:29;;;;;;;;;;;;;;;;;;4998327;28;19933;-81
2021/07/23 17:29:59;;;;;;;;;;;;;;;;;;5016824;28;19925;-84
2021/07/23 17:32:27;;;;;;;;;;;;;;;;;;5002230;28;19926;-82
2021/07/23 17:34:55;;;;;;;;;;;;;;;;;;5004133;28;20202;-81
2021/07/23 17:37:24;;;;;;;;;;;;;;;;;;4987101;28;19926;-84
2021/07/23 17:39:52;;;;;;;;;;;;;;;;;;5009204;28;20008;-83
2021/07/23 17:42:28;;;;;;;;;;;;;;;;;;4991438;28;19933;-82
2021/07/23 17:45:17;;;;;;;;;;;;;;;;;;5005820;28;20289;-82
2021/07/23 17:47:47;;;;;;;;;;;;;;;;;;4992601;28;19926;-83
2021/07/23 17:50:15;;;;;;;;;;;;;;;;;;5011702;28;19953;-82
2021/07/23 17:52:44;;;;;;;;;;;;;;;;;;4984137;28;19933;-82
2021/07/23 17:55:12;;;;;;;;;;;;;;;;;;4993279;28;19933;-84
2021/07/23 17:57:43;;;;;;;;;;;;;;;;;;4979661;28;20372;-82
2021/07/23 18:00:12;;;;;;;;;;;;;;;;;;5074017;28;19940;-83
2021/07/23 18:02:55;;;;;;;;;;;;;;;;;;4984887;28;19930;-82
2021/07/23 18:05:23;;;;;;;;;;;;;;;;;;5002911;28;20324;-82
2021/07/23 18:07:52;;;;;;;;;;;;;;;;;;4988710;28;19934;-81
2021/07/23 18:10:23;;;;;;;;;;;;;;;;;;4986282;28;19936;-81
2021/07/23 18:12:51;;;;;;;;;;;;;;;;;;4995633;28;19934;-84
2021/07/23 18:15:20;;;;;;;;;;;;;;;;;;5010875;28;19933;-83
2021/07/23 18:17:48;;;;;;;;;;;;;;;;;;5004444;28;20420;-80
2021/07/23 18:20:17;;;;;;;;;;;;;;;;;;4996640;28;19926;-83
2021/07/23 18:22:46;;;;;;;;;;;;;;;;;;4992846;28;20312;-81
2021/07/23 18:25:14;;;;;;;;;;;;;;;;;;4980438;28;19937;-82
2021/07/23 18:27:43;;;;;;;;;;;;;;;;;;5012009;28;19929;-81
2021/07/23 18:30:12;;;;;;;;;;;;;;;;;;5002933;28;19933;-81
2021/07/23 18:32:40;;;;;;;;;;;;;;;;;;4998653;28;19926;-81
2021/07/23 18:35:09;;;;;;;;;;;;;;;;;;4992365;28;19926;-82
2021/07/23 18:37:39;;;;;;;;;;;;;;;;;;5007166;28;19926;-81
2021/07/23 18:40:08;;;;;;;;;;;;;;;;;;5020002;28;19930;-81
2021/07/23 18:42:37;;;;;;;;;;;;;;;;;;4978953;28;19933;-82
2021/07/23 18:45:06;;;;;;;;;;;;;;;;;;4985627;28;19926;-81
2021/07/23 18:47:34;;;;;;;;;;;;;;;;;;5001177;28;19926;-84
2021/07/23 18:50:02;;;;;;;;;;;;;;;;;;5007590;28;20400;-83
2021/07/23 18:52:33;;;;;;;;;;;;;;;;;;4992747;28;19933;-81
2021/07/23 18:58:42;;;;;;;;;;;;;;;;;;5004757;28;19925;-84
2021/07/23 19:01:11;;;;;;;;;;;;;;;;;;4997550;28;19941;-84
2021/07/23 19:03:40;;;;;;;;;;;;;;;;;;5029085;28;19925;-82
2021/07/23 19:06:09;;;;;;;;;;;;;;;;;;4997677;28;19926;-84
2021/07/23 19:08:38;;;;;;;;;;;;;;;;;;4996821;28;20198;-81
2021/07/23 19:11:10;;;;;;;;;;;;;;;;;;4986255;28;19940;-81
2021/07/23 19:13:40;;;;;;;;;;;;;;;;;;4991898;28;19926;-84
2021/07/23 19:16:11;;;;;;;;;;;;;;;;;;4985176;28;19933;-87
2021/07/23 19:18:49;;;;;;;;;;;;;;;;;;5007648;28;19925;-84
2021/07/23 19:21:18;;;;;;;;;;;;;;;;;;4992477;28;19947;-85
2021/07/23 19:24:02;;;;;;;;;;;;;;;;;;5004097;28;19933;-83
2021/07/23 19:26:31;;;;;;;;;;;;;;;;;;4988759;28;19926;-81
2021/07/23 19:28:59;;;;;;;;;;;;;;;;;;5039396;28;19926;-87
2021/07/23 19:31:29;;;;;;;;;;;;;;;;;;4984339;28;19925;-81
2021/07/23 19:33:58;;;;;;;;;;;;;;;;;;4997393;28;19925;-86
2021/07/23 19:36:27;;;;;;;;;;;;;;;;;;5004508;28;20300;-81
2021/07/23 19:38:55;;;;;;;;;;;;;;;;;;4980253;28;19945;-81
2021/07/23 19:41:23;;;;;;;;;;;;;;;;;;4993121;28;21215;-82
2021/07/23 19:43:58;;;;;;;;;;;;;;;;;;5007373;28;20396;-81
2021/07/23 19:46:29;;;;;;;;;;;;;;;;;;4989379;28;20300;-82
2021/07/23 19:48:57;;;;;;;;;;;;;;;;;;4996942;28;19930;-81
2021/07/23 19:51:25;;;;;;;;;;;;;;;;;;4989630;28;19933;-85
2021/07/23 19:53:59;;;;;;;;;;;;;;;;;;4984939;28;20619;-83
2021/07/23 19:56:28;;;;;;;;;;;;;;;;;;4996715;28;19940;-83
2021/07/23 19:58:56;;;;;;;;;;;;;;;;;;4983531;28;20277;-85
2021/07/23 20:01:24;;;;;;;;;;;;;;;;;;4995658;28;20158;-87
2021/07/23 20:03:55;;;;;;;;;;;;;;;;;;4975838;28;20392;-85
2021/07/23 20:06:28;;;;;;;;;;;;;;;;;;4998729;28;19940;-84
2021/07/23 20:08:56;;;;;;;;;;;;;;;;;;4976952;28;19926;-84
2021/07/23 20:11:25;;;;;;;;;;;;;;;;;;4991677;28;19925;-86
2021/07/23 20:13:53;;;;;;;;;;;;;;;;;;4996346;28;19941;-82
2021/07/23 20:16:21;;;;;;;;;;;;;;;;;;4983530;28;19932;-84
2021/07/23 20:18:50;;;;;;;;;;;;;;;;;;4984011;28;19926;-86
2021/07/23 20:21:19;;;;;;;;;;;;;;;;;;4983070;28;19932;-85
2021/07/23 20:23:47;;;;;;;;;;;;;;;;;;4979422;28;19929;-84
2021/07/23 20:26:16;;;;;;;;;;;;;;;;;;4981669;28;19940;-86
2021/07/23 20:28:45;;;;;;;;;;;;;;;;;;5007763;28;19933;-86
2021/07/23 20:31:14;;;;;;;;;;;;;;;;;;4974696;28;20392;-84
2021/07/23 20:33:43;;;;;;;;;;;;;;;;;;4988337;28;19926;-85
2021/07/23 20:36:11;;;;;;;;;;;;;;;;;;4992500;28;20397;-84
2021/07/23 20:38:41;;;;;;;;;;;;;;;;;;5004687;28;19933;-85
2021/07/23 20:41:10;;;;;;;;;;;;;;;;;;5064904;28;20385;-86
2021/07/23 20:43:38;;;;;;;;;;;;;;;;;;4991773;28;19933;-85
2021/07/23 20:46:06;;;;;;;;;;;;;;;;;;4999074;28;19937;-86
2021/07/23 20:48:35;;;;;;;;;;;;;;;;;;4987279;28;19926;-84
2021/07/23 20:51:13;;;;;;;;;;;;;;;;;;4998390;28;19930;-85
2021/07/23 20:53:42;;;;;;;;;;;;;;;;;;4988877;28;20289;-83
2021/07/23 20:56:20;;;;;;;;;;;;;;;;;;5033542;28;19933;-86
2021/07/23 20:58:49;;;;;;;;;;;;;;;;;;4993589;28;19933;-87
2021/07/23 21:01:17;;;;;;;;;;;;;;;;;;5014923;28;19926;-84
2021/07/23 21:04:01;;;;;;;;;;;;;;;;;;4989439;28;20086;-82
2021/07/23 21:10:02;;;;;;;;;;;;;;;;;;5003511;28;19992;-81
2021/07/23 21:13:00;;;;;;;;;;;;;;;;;;4991174;28;20093;-84
2021/07/23 21:15:28;;;;;;;;;;;;;;;;;;4989802;28;19935;-84
2021/07/23 21:17:57;;;;;;;;;;;;;;;;;;4975221;28;19926;-86
2021/07/23 21:20:25;;;;;;;;;;;;;;;;;;5008476;28;19925;-87
2021/07/23 21:22:54;;;;;;;;;;;;;;;;;;4984640;28;19926;-84
2021/07/23 21:25:24;;;;;;;;;;;;;;;;;;5003404;28;20416;-88
2021/07/23 21:27:53;;;;;;;;;;;;;;;;;;4980327;28;20160;-84
2021/07/23 21:30:21;;;;;;;;;;;;;;;;;;4996700;28;19933;-87
2021/07/23 21:32:50;;;;;;;;;;;;;;;;;;5011018;28;19934;-86
2021/07/23 21:35:18;;;;;;;;;;;;;;;;;;5000711;28;19926;-85
2021/07/23 21:37:47;;;;;;;;;;;;;;;;;;4986824;28;19933;-84
2021/07/23 21:40:16;;;;;;;;;;;;;;;;;;5000814;28;19929;-86
2021/07/23 21:42:46;;;;;;;;;;;;;;;;;;4999709;28;19930;-84
2021/07/23 21:45:15;;;;;;;;;;;;;;;;;;4985977;28;19930;-85
2021/07/23 21:47:43;;;;;;;;;;;;;;;;;;4980558;28;19937;-86
2021/07/23 21:50:12;;;;;;;;;;;;;;;;;;4984523;28;19926;-87
2021/07/23 21:52:41;;;;;;;;;;;;;;;;;;5004402;28;19933;-83
2021/07/23 21:55:10;;;;;;;;;;;;;;;;;;4985650;28;19930;-84
2021/07/23 22:02:18;;;;;;;;;;;;;;;;;;5023774;28;20292;-87
2021/07/23 22:04:46;;;;;;;;;;;;;;;;;;4982660;28;19929;-86
2021/07/23 22:07:14;;;;;;;;;;;;;;;;;;4988049;28;19936;-85
2021/07/23 22:09:43;;;;;;;;;;;;;;;;;;4976281;28;19925;-83
2021/07/23 22:12:11;;;;;;;;;;;;;;;;;;4995412;28;19933;-84
2021/07/23 22:14:40;;;;;;;;;;;;;;;;;;4993109;28;20667;-84
2021/07/23 22:17:08;;;;;;;;;;;;;;;;;;5014195;28;19926;-85
2021/07/23 22:19:41;;;;;;;;;;;;;;;;;;5012305;28;19926;-88
2021/07/23 22:22:10;;;;;;;;;;;;;;;;;;5009292;28;19936;-88
2021/07/23 22:24:41;;;;;;;;;;;;;;;;;;4994166;28;19925;-83
2021/07/23 22:27:10;;;;;;;;;;;;;;;;;;4987971;28;19933;-86
2021/07/23 22:29:39;;;;;;;;;;;;;;;;;;4996978;28;20429;-86
2021/07/23 22:32:07;;;;;;;;;;;;;;;;;;4977668;28;19926;-88
2021/07/23 22:34:36;;;;;;;;;;;;;;;;;;4998962;28;19937;-86
2021/07/23 22:37:06;;;;;;;;;;;;;;;;;;4999591;28;19933;-87
2021/07/23 22:39:34;;;;;;;;;;;;;;;;;;4978428;28;20324;-85
2021/07/23 22:42:03;;;;;;;;;;;;;;;;;;5011240;28;19925;-84
2021/07/23 22:44:32;;;;;;;;;;;;;;;;;;4982706;28;19926;-86
2021/07/23 22:47:03;;;;;;;;;;;;;;;;;;4979270;28;20312;-85
2021/07/23 22:49:31;;;;;;;;;;;;;;;;;;4990854;28;19926;-84
2021/07/23 22:52:00;;;;;;;;;;;;;;;;;;4982099;28;20285;-87
2021/07/23 22:54:30;;;;;;;;;;;;;;;;;;5003027;27;20305;-86
2021/07/23 22:56:59;;;;;;;;;;;;;;;;;;4983191;28;19926;-84
2021/07/23 22:59:27;;;;;;;;;;;;;;;;;;4999904;28;19937;-85
2021/07/23 23:01:59;;;;;;;;;;;;;;;;;;4997578;28;19940;-87
2021/07/23 23:04:27;;;;;;;;;;;;;;;;;;5067923;28;19926;-87
2021/07/23 23:06:56;;;;;;;;;;;;;;;;;;4981292;28;19930;-86
2021/07/23 23:09:24;;;;;;;;;;;;;;;;;;4987455;28;20308;-84
2021/07/23 23:11:53;;;;;;;;;;;;;;;;;;5000057;28;19930;-87
2021/07/23 23:14:22;;;;;;;;;;;;;;;;;;4988892;28;19926;-84
2021/07/23 23:16:50;;;;;;;;;;;;;;;;;;5064069;28;19933;-86
2021/07/23 23:19:19;;;;;;;;;;;;;;;;;;4981431;28;19941;-90
2021/07/23 23:21:47;;;;;;;;;;;;;;;;;;4983031;28;19926;-87
2021/07/23 23:24:15;;;;;;;;;;;;;;;;;;5003232;28;19926;-86
2021/07/23 23:26:44;;;;;;;;;;;;;;;;;;4997875;28;19949;-84
2021/07/23 23:29:14;;;;;;;;;;;;;;;;;;4981324;28;20320;-86
2021/07/23 23:31:43;;;;;;;;;;;;;;;;;;4987933;28;19933;-84
2021/07/23 23:34:13;;;;;;;;;;;;;;;;;;4997558;28;19926;-85
2021/07/23 23:36:45;;;;;;;;;;;;;;;;;;5002527;28;19925;-85
2021/07/23 23:39:14;;;;;;;;;;;;;;;;;;5005364;28;19926;-87
2021/07/23 23:41:42;;;;;;;;;;;;;;;;;;4979457;28;20408;-84
2021/07/23 23:44:11;;;;;;;;;;;;;;;;;;4989624;28;19933;-85
2021/07/23 23:46:41;;;;;;;;;;;;;;;;;;4974702;28;19930;-86
2021/07/23 23:49:09;;;;;;;;;;;;;;;;;;4993256;28;19933;-85
2021/07/23 23:51:38;;;;;;;;;;;;;;;;;;4984382;28;19926;-85
2021/07/23 23:54:07;;;;;;;;;;;;;;;;;;4990007;28;19929;-85
2021/07/23 23:56:36;;;;;;;;;;;;;;;;;;4995583;28;20396;-85
2021/07/23 23:59:05;;;;;;;;;;;;;;;;;;4979286;28;20031;-85
